createdAt,value
2023-02-12T00:01:36.176Z,99441.16
2023-02-12T00:04:04.965Z,99440.16
2023-02-12T00:06:33.263Z,99433.94
2023-02-12T00:09:01.544Z,99418.13
2023-02-12T00:11:31.181Z,99417.16
2023-02-12T00:14:03.320Z,99417.16
2023-02-12T00:16:31.676Z,99425.09
2023-02-12T00:19:01.354Z,99422.38
2023-02-12T00:21:29.969Z,99430.28
2023-02-12T00:23:58.846Z,99424.16
2023-02-12T00:26:27.263Z,99421.53
2023-02-12T00:28:56.252Z,99415.31
2023-02-12T00:31:28.561Z,99412.69
2023-02-12T00:33:57.769Z,99411.72
2023-02-12T00:36:29.715Z,99416.19
2023-02-12T00:38:58.616Z,99419.56
2023-02-12T00:41:28.019Z,99422.19
2023-02-12T00:43:56.321Z,99430.97
2023-02-12T00:46:26.129Z,99439.75
2023-02-12T00:48:54.458Z,99430.03
2023-02-12T00:51:23.088Z,99442.31
2023-02-12T00:53:51.377Z,99449.34
2023-02-12T00:56:19.828Z,99447.56
2023-02-12T00:58:48.067Z,99464.22
2023-02-12T01:01:17.856Z,99468.69
2023-02-12T01:03:47.511Z,99470.38
2023-02-12T01:06:15.817Z,99466.88
2023-02-12T01:08:44.012Z,99465.00
2023-02-12T01:11:14.951Z,99454.47
2023-02-12T01:13:43.417Z,99449.19
2023-02-12T01:16:17.333Z,99449.28
2023-02-12T01:18:47.917Z,99443.06
2023-02-12T01:21:19.117Z,99445.69
2023-02-12T01:23:47.997Z,99455.41
2023-02-12T01:26:18.112Z,99457.09
2023-02-12T01:28:52.039Z,99458.88
2023-02-12T01:31:24.177Z,99450.97
2023-02-12T01:33:56.028Z,99460.59
2023-02-12T01:36:25.148Z,99465.88
2023-02-12T01:38:53.980Z,99458.78
2023-02-12T01:41:25.187Z,99469.34
2023-02-12T01:44:17.421Z,99464.94
2023-02-12T01:46:47.849Z,99464.94
2023-02-12T01:49:22.420Z,99473.88
2023-02-12T01:51:55.331Z,99478.28
2023-02-12T01:54:26.759Z,99472.16
2023-02-12T01:56:55.437Z,99471.22
2023-02-12T01:59:24.195Z,99461.50
2023-02-12T02:01:52.652Z,99462.38
2023-02-12T02:04:27.084Z,99462.38
2023-02-12T02:06:59.406Z,99462.47
2023-02-12T02:09:30.027Z,99458.97
2023-02-12T02:12:16.214Z,99463.31
2023-02-12T02:14:45.536Z,99467.81
2023-02-12T02:17:45.134Z,99463.56
2023-02-12T02:21:16.443Z,99464.56
2023-02-12T02:24:28.172Z,99460.47
2023-02-12T02:27:16.312Z,99470.06
2023-02-12T02:30:24.359Z,99470.94
2023-02-12T02:33:04.042Z,99469.16
2023-02-12T02:35:41.546Z,99472.72
2023-02-12T02:38:21.749Z,99474.44
2023-02-12T02:40:58.018Z,99472.63
2023-02-12T02:43:30.872Z,99473.50
2023-02-12T02:46:07.400Z,99471.72
2023-02-12T02:48:38.867Z,99470.78
2023-02-12T02:51:13.466Z,99464.72
2023-02-12T02:53:47.712Z,99466.44
2023-02-12T02:56:20.465Z,99458.53
2023-02-12T02:58:54.472Z,99458.63
2023-02-12T03:01:29.591Z,99464.88
2023-02-12T03:04:04.400Z,99467.59
2023-02-12T03:06:40.215Z,99463.28
2023-02-12T03:09:19.642Z,99462.50
2023-02-12T03:11:48.397Z,99457.22
2023-02-12T03:14:22.052Z,99458.16
2023-02-12T03:16:59.466Z,99461.66
2023-02-12T03:19:32.224Z,99469.66
2023-02-12T03:22:05.910Z,99466.22
2023-02-12T03:24:37.473Z,99471.59
2023-02-12T03:27:11.299Z,99471.59
2023-02-12T03:29:39.832Z,99472.69
2023-02-12T03:32:26.148Z,99471.75
2023-02-12T03:35:07.894Z,99471.00
2023-02-12T03:37:42.335Z,99483.22
2023-02-12T03:40:18.521Z,99483.31
2023-02-12T03:42:54.989Z,99487.63
2023-02-12T03:45:39.597Z,99483.22
2023-02-12T03:48:15.210Z,99490.28
2023-02-12T03:50:52.027Z,99489.44
2023-02-12T03:53:20.468Z,99485.78
2023-02-12T03:55:55.961Z,99484.16
2023-02-12T03:58:28.537Z,99494.63
2023-02-12T04:00:57.489Z,99495.47
2023-02-12T04:03:27.409Z,99499.75
2023-02-12T04:05:55.906Z,99502.31
2023-02-12T04:08:25.682Z,99500.50
2023-02-12T04:11:11.993Z,99505.03
2023-02-12T04:13:52.966Z,99504.16
2023-02-12T04:16:28.088Z,99512.94
2023-02-12T04:18:58.395Z,99515.56
2023-02-12T04:21:45.746Z,99514.72
2023-02-12T04:24:26.212Z,99517.34
2023-02-12T04:26:59.161Z,99510.47
2023-02-12T04:29:35.998Z,99514.88
2023-02-12T04:32:10.542Z,99521.84
2023-02-12T04:34:50.658Z,99524.47
2023-02-12T04:37:24.244Z,99526.34
2023-02-12T04:39:54.340Z,99525.41
2023-02-12T04:42:22.991Z,99527.97
2023-02-12T04:44:51.232Z,99526.19
2023-02-12T04:47:19.496Z,99530.59
2023-02-12T04:49:49.094Z,99530.53
2023-02-12T04:52:17.453Z,99527.03
2023-02-12T04:54:45.978Z,99527.97
2023-02-12T04:57:14.226Z,99533.25
2023-02-12T04:59:42.428Z,99532.47
2023-02-12T05:02:10.682Z,99536.03
2023-02-12T05:04:38.963Z,99533.47
2023-02-12T05:07:08.632Z,99539.84
2023-02-12T05:09:36.933Z,99543.38
2023-02-12T05:12:05.464Z,99541.69
2023-02-12T05:14:33.700Z,99545.28
2023-02-12T05:17:01.961Z,99534.72
2023-02-12T05:19:30.192Z,99546.97
2023-02-12T05:21:58.429Z,99536.44
2023-02-12T05:24:28.132Z,99540.75
2023-02-12T05:26:56.459Z,99546.97
2023-02-12T05:29:24.950Z,99545.19
2023-02-12T05:31:53.220Z,99549.53
2023-02-12T05:34:21.554Z,99542.56
2023-02-12T05:36:49.988Z,99542.47
2023-02-12T05:39:18.792Z,99546.81
2023-02-12T05:41:48.489Z,99553.03
2023-02-12T05:44:16.763Z,99554.72
2023-02-12T05:46:45.643Z,99551.22
2023-02-12T05:49:14.009Z,99553.84
2023-02-12T05:51:42.293Z,99553.09
2023-02-12T05:54:11.370Z,99561.91
2023-02-12T05:56:45.050Z,99560.22
2023-02-12T05:59:20.195Z,99553.25
2023-02-12T06:01:51.145Z,99547.13
2023-02-12T06:04:21.604Z,99547.13
2023-02-12T06:06:49.947Z,99547.97
2023-02-12T06:09:18.297Z,99552.41
2023-02-12T06:11:46.801Z,99567.34
2023-02-12T06:14:19.802Z,99563.94
2023-02-12T06:16:50.213Z,99559.59
2023-02-12T06:19:19.897Z,99559.50
2023-02-12T06:21:48.698Z,99574.41
2023-02-12T06:24:18.230Z,99578.75
2023-02-12T06:26:47.218Z,99566.50
2023-02-12T06:29:16.864Z,99572.69
2023-02-12T06:31:45.381Z,99586.75
2023-02-12T06:34:16.744Z,99581.53
2023-02-12T06:36:46.892Z,99587.75
2023-02-12T06:39:17.234Z,99591.22
2023-02-12T06:41:45.657Z,99595.72
2023-02-12T06:44:16.111Z,99593.31
2023-02-12T06:46:44.524Z,99591.53
2023-02-12T06:49:16.277Z,99594.16
2023-02-12T06:51:44.579Z,99590.63
2023-02-12T06:54:16.582Z,99589.75
2023-02-12T06:56:45.835Z,99587.91
2023-02-12T06:59:17.772Z,99591.38
2023-02-12T07:01:46.287Z,99592.22
2023-02-12T07:04:14.816Z,99595.72
2023-02-12T07:06:43.171Z,99600.00
2023-02-12T07:09:11.460Z,99597.34
2023-02-12T07:11:40.107Z,99601.69
2023-02-12T07:14:08.913Z,99602.47
2023-02-12T07:16:38.832Z,99622.63
2023-02-12T07:19:07.128Z,99620.78
2023-02-12T07:21:35.365Z,99615.50
2023-02-12T07:24:03.665Z,99609.28
2023-02-12T07:26:31.915Z,99607.53
2023-02-12T07:29:00.155Z,99619.69
2023-02-12T07:31:28.809Z,99617.84
2023-02-12T07:34:00.236Z,99611.63
2023-02-12T07:36:31.596Z,99610.72
2023-02-12T07:39:01.632Z,99618.63
2023-02-12T07:41:32.097Z,99616.06
2023-02-12T07:44:06.770Z,99622.97
2023-02-12T07:46:38.128Z,99623.81
2023-02-12T07:49:10.822Z,99627.13
2023-02-12T07:51:39.196Z,99621.78
2023-02-12T07:54:07.655Z,99614.75
2023-02-12T07:56:39.003Z,99625.13
2023-02-12T07:59:11.094Z,99616.28
2023-02-12T08:01:41.944Z,99614.44
2023-02-12T08:04:15.138Z,99621.41
2023-02-12T08:06:45.823Z,99624.81
2023-02-12T08:09:18.687Z,99612.41
2023-02-12T08:11:47.391Z,99614.97
2023-02-12T08:14:19.364Z,99604.31
2023-02-12T08:16:49.675Z,99614.72
2023-02-12T08:19:23.964Z,99615.50
2023-02-12T08:21:58.423Z,99618.16
2023-02-12T08:24:27.001Z,99618.06
2023-02-12T08:26:55.273Z,99625.97
2023-02-12T08:29:25.960Z,99613.66
2023-02-12T08:31:58.915Z,99618.84
2023-02-12T08:34:31.306Z,99616.97
2023-02-12T08:37:00.392Z,99623.13
2023-02-12T08:39:31.238Z,99620.41
2023-02-12T08:42:01.160Z,99624.66
2023-02-12T08:44:29.890Z,99625.47
2023-02-12T08:46:58.221Z,99625.31
2023-02-12T08:49:30.098Z,99621.66
2023-02-12T08:52:01.766Z,99625.94
2023-02-12T08:54:32.694Z,99615.31
2023-02-12T08:57:03.165Z,99618.69
2023-02-12T08:59:32.156Z,99615.97
2023-02-12T09:02:00.790Z,99622.13
2023-02-12T09:04:31.271Z,99623.75
2023-02-12T09:06:59.656Z,99622.75
2023-02-12T09:09:28.024Z,99623.50
2023-02-12T09:11:56.329Z,99625.13
2023-02-12T09:14:25.312Z,99626.75
2023-02-12T09:16:54.274Z,99629.31
2023-02-12T09:19:22.831Z,99622.06
2023-02-12T09:21:56.135Z,99627.28
2023-02-12T09:24:27.504Z,99628.84
2023-02-12T09:26:56.102Z,99631.31
2023-02-12T09:29:24.425Z,99635.66
2023-02-12T09:31:52.952Z,99642.53
2023-02-12T09:34:21.388Z,99637.97
2023-02-12T09:36:49.639Z,99634.47
2023-02-12T09:39:19.288Z,99636.88
2023-02-12T09:42:18.876Z,99632.38
2023-02-12T09:44:52.788Z,99636.69
2023-02-12T09:47:28.712Z,99641.00
2023-02-12T09:50:32.961Z,99634.59
2023-02-12T09:53:01.908Z,99645.88
2023-02-12T09:55:34.827Z,99643.97
2023-02-12T09:58:10.302Z,99649.09
2023-02-12T10:00:38.569Z,99648.91
2023-02-12T10:03:16.060Z,99647.97
2023-02-12T10:05:49.418Z,99646.13
2023-02-12T10:09:01.410Z,99649.53
2023-02-12T10:11:53.157Z,99651.22
2023-02-12T10:15:15.346Z,99652.94
2023-02-12T10:17:50.320Z,99659.06
2023-02-12T10:20:54.325Z,99658.91
2023-02-12T10:23:59.382Z,99657.13
2023-02-12T10:26:32.076Z,99662.25
2023-02-12T10:29:33.119Z,99665.63
2023-02-12T10:32:06.789Z,99666.41
2023-02-12T10:34:37.839Z,99650.41
2023-02-12T10:37:12.956Z,99660.81
2023-02-12T10:39:49.158Z,99656.22
2023-02-12T10:42:22.630Z,99653.50
2023-02-12T10:44:52.418Z,99659.44
2023-02-12T10:47:23.563Z,99659.28
2023-02-12T10:49:59.260Z,99649.47
2023-02-12T10:52:40.809Z,99649.22
2023-02-12T10:55:27.255Z,99658.69
2023-02-12T10:57:56.700Z,99656.81
2023-02-12T11:00:31.917Z,99649.63
2023-02-12T11:03:23.796Z,99649.38
2023-02-12T11:05:52.100Z,99644.88
2023-02-12T11:08:36.525Z,99648.28
2023-02-12T11:11:10.351Z,99649.91
2023-02-12T11:13:41.527Z,99653.31
2023-02-12T11:16:12.336Z,99641.63
2023-02-12T11:18:40.681Z,99635.38
2023-02-12T11:21:11.251Z,99639.56
2023-02-12T11:23:42.862Z,99640.31
2023-02-12T11:26:28.684Z,99642.13
2023-02-12T11:29:00.517Z,99641.19
2023-02-12T11:31:32.368Z,99639.31
2023-02-12T11:34:16.587Z,99634.84
2023-02-12T11:36:47.319Z,99629.41
2023-02-12T11:39:22.709Z,99636.34
2023-02-12T11:41:54.850Z,99632.69
2023-02-12T11:44:27.731Z,99630.81
2023-02-12T11:47:02.200Z,99632.31
2023-02-12T11:49:34.238Z,99632.16
2023-02-12T11:52:05.964Z,99638.94
2023-02-12T11:54:41.893Z,99636.22
2023-02-12T11:57:39.326Z,99636.91
2023-02-12T12:00:16.695Z,99627.16
2023-02-12T12:02:51.873Z,99635.69
2023-02-12T12:05:22.637Z,99632.94
2023-02-12T12:07:57.012Z,99639.00
2023-02-12T12:10:35.618Z,99630.91
2023-02-12T12:13:12.302Z,99632.50
2023-02-12T12:16:03.573Z,99625.44
2023-02-12T12:18:58.539Z,99620.97
2023-02-12T12:21:35.390Z,99627.13
2023-02-12T12:24:12.715Z,99617.31
2023-02-12T12:26:47.140Z,99616.34
2023-02-12T12:29:22.018Z,99615.31
2023-02-12T12:31:54.844Z,99610.78
2023-02-12T12:34:26.947Z,99615.13
2023-02-12T12:37:20.987Z,99604.44
2023-02-12T12:40:14.497Z,99604.34
2023-02-12T12:43:09.616Z,99598.97
2023-02-12T12:46:14.229Z,99594.53
2023-02-12T12:49:22.196Z,99602.38
2023-02-12T12:52:09.387Z,99591.81
2023-02-12T12:54:57.100Z,99593.41
2023-02-12T12:57:40.876Z,99598.59
2023-02-12T13:00:36.454Z,99589.72
2023-02-12T13:03:45.215Z,99586.97
2023-02-12T13:06:38.031Z,99589.53
2023-02-12T13:09:28.895Z,99587.75
2023-02-12T13:12:34.246Z,99586.69
2023-02-12T13:15:11.627Z,99585.00
2023-02-12T13:17:46.349Z,99588.41
2023-02-12T13:20:24.242Z,99583.13
2023-02-12T13:23:00.657Z,99598.16
2023-02-12T13:25:37.111Z,99590.56
2023-02-12T13:28:07.288Z,99595.69
2023-02-12T13:30:44.301Z,99599.19
2023-02-12T13:33:18.098Z,99595.59
2023-02-12T13:35:49.357Z,99598.25
2023-02-12T13:38:24.352Z,99596.34
2023-02-12T13:40:57.651Z,99599.84
2023-02-12T13:43:45.689Z,99595.59
2023-02-12T13:46:22.865Z,99599.19
2023-02-12T13:49:02.654Z,99592.25
2023-02-12T13:51:42.800Z,99599.28
2023-02-12T13:54:48.155Z,99594.91
2023-02-12T13:57:23.060Z,99597.47
2023-02-12T13:59:53.805Z,99595.59
2023-02-12T14:02:53.034Z,99589.44
2023-02-12T14:05:28.923Z,99590.19
2023-02-12T14:08:00.699Z,99588.41
2023-02-12T14:10:34.319Z,99590.03
2023-02-12T14:13:19.186Z,99585.59
2023-02-12T14:15:51.290Z,99588.03
2023-02-12T14:18:35.775Z,99586.31
2023-02-12T14:21:44.417Z,99577.47
2023-02-12T14:24:53.214Z,99581.13
2023-02-12T14:27:38.467Z,99580.28
2023-02-12T14:33:25.184Z,99583.50
2023-02-12T14:36:21.182Z,99577.38
2023-02-12T14:39:01.668Z,99580.09
2023-02-12T14:41:38.792Z,99580.94
2023-02-12T14:44:46.386Z,99580.09
2023-02-12T14:47:56.044Z,99586.41
2023-02-12T14:50:31.807Z,99582.06
2023-02-12T14:53:21.296Z,99590.88
2023-02-12T14:55:50.789Z,99585.59
2023-02-12T14:58:22.042Z,99587.38
2023-02-12T15:00:56.105Z,99582.94
2023-02-12T15:03:33.068Z,99584.72
2023-02-12T15:06:16.367Z,99588.13
2023-02-12T15:08:50.801Z,99581.88
2023-02-12T15:11:29.553Z,99579.34
2023-02-12T15:14:05.872Z,99582.75
2023-02-12T15:16:44.759Z,99576.50
2023-02-12T15:19:35.567Z,99579.16
2023-02-12T15:22:05.166Z,99573.00
2023-02-12T15:24:33.413Z,99568.56
2023-02-12T15:27:02.082Z,99569.50
2023-02-12T15:29:36.802Z,99569.59
2023-02-12T15:32:09.817Z,99573.19
2023-02-12T15:34:41.853Z,99573.47
2023-02-12T15:37:19.857Z,99571.00
2023-02-12T15:39:48.963Z,99572.03
2023-02-12T15:42:30.294Z,99564.38
2023-02-12T15:45:22.110Z,99573.66
2023-02-12T15:48:10.884Z,99567.03
2023-02-12T15:50:51.347Z,99571.66
2023-02-12T15:53:21.755Z,99572.88
2023-02-12T15:55:51.239Z,99568.78
2023-02-12T15:58:24.529Z,99568.13
2023-02-12T16:00:54.807Z,99568.47
2023-02-12T16:03:26.989Z,99575.81
2023-02-12T16:06:02.612Z,99566.66
2023-02-12T16:08:34.780Z,99565.28
2023-02-12T16:11:13.849Z,99570.91
2023-02-12T16:13:46.896Z,99567.78
2023-02-12T16:16:25.524Z,99570.84
2023-02-12T16:19:09.603Z,99559.75
2023-02-12T16:21:40.291Z,99561.06
2023-02-12T16:24:27.465Z,99560.66
2023-02-12T16:26:56.347Z,99561.75
2023-02-12T16:29:25.091Z,99556.81
2023-02-12T16:31:59.118Z,99558.88
2023-02-12T16:34:37.101Z,99567.06
2023-02-12T16:37:45.800Z,99574.56
2023-02-12T16:40:30.909Z,99572.34
2023-02-12T16:43:07.914Z,99577.94
2023-02-12T16:45:42.629Z,99580.09
2023-02-12T16:48:19.209Z,99584.84
2023-02-12T16:50:51.957Z,99587.91
2023-02-12T16:53:47.400Z,99590.00
2023-02-12T16:56:21.136Z,99587.75
2023-02-12T16:58:52.094Z,99586.41
2023-02-12T17:01:24.513Z,99585.88
2023-02-12T17:03:53.485Z,99585.25
2023-02-12T17:06:23.409Z,99584.19
2023-02-12T17:08:52.107Z,99595.63
2023-02-12T17:11:23.261Z,99591.69
2023-02-12T17:13:53.896Z,99592.25
2023-02-12T17:16:32.055Z,99596.97
2023-02-12T17:19:00.887Z,99601.72
2023-02-12T17:21:31.124Z,99602.97
2023-02-12T17:23:59.611Z,99598.91
2023-02-12T17:26:29.274Z,99602.78
2023-02-12T17:29:05.151Z,99606.56
2023-02-12T17:31:33.839Z,99607.72
2023-02-12T17:34:02.447Z,99610.72
2023-02-12T17:36:30.837Z,99609.25
2023-02-12T17:38:59.084Z,99618.22
2023-02-12T17:41:28.758Z,99613.19
2023-02-12T17:43:57.033Z,99611.56
2023-02-12T17:46:28.304Z,99609.97
2023-02-12T17:48:56.871Z,99611.00
2023-02-12T17:51:25.674Z,99611.13
2023-02-12T17:53:54.279Z,99611.22
2023-02-12T17:56:25.622Z,99612.16
2023-02-12T17:58:55.237Z,99609.66
2023-02-12T18:01:24.930Z,99608.00
2023-02-12T18:03:55.554Z,99621.16
2023-02-12T18:06:28.422Z,99616.84
2023-02-12T18:08:58.488Z,99616.97
2023-02-12T18:11:27.785Z,99616.19
2023-02-12T18:13:59.285Z,99621.66
2023-02-12T18:16:31.877Z,99628.81
2023-02-12T18:19:01.352Z,99620.38
2023-02-12T18:21:29.580Z,99628.28
2023-02-12T18:23:57.858Z,99619.69
2023-02-12T18:26:26.123Z,99621.59
2023-02-12T18:28:54.933Z,99626.06
2023-02-12T18:31:24.652Z,99631.47
2023-02-12T18:33:54.334Z,99631.63
2023-02-12T18:36:23.607Z,99620.47
2023-02-12T18:38:52.965Z,99633.69
2023-02-12T18:41:24.222Z,99624.13
2023-02-12T18:43:52.866Z,99633.91
2023-02-12T18:46:25.708Z,99633.09
2023-02-12T18:48:54.674Z,99629.75
2023-02-12T18:51:25.995Z,99634.25
2023-02-12T18:53:57.141Z,99625.63
2023-02-12T18:56:25.687Z,99619.66
2023-02-12T18:58:57.637Z,99624.19
2023-02-12T19:01:28.578Z,99620.00
2023-02-12T19:04:00.130Z,99620.13
2023-02-12T19:06:29.108Z,99615.91
2023-02-12T19:08:58.455Z,99625.69
2023-02-12T19:11:28.133Z,99619.72
2023-02-12T19:13:56.931Z,99625.09
2023-02-12T19:16:27.594Z,99630.50
2023-02-12T19:19:00.010Z,99628.78
2023-02-12T19:21:28.335Z,99618.47
2023-02-12T19:24:01.339Z,99620.31
2023-02-12T19:26:31.089Z,99611.75
2023-02-12T19:28:59.740Z,99612.75
2023-02-12T19:31:32.535Z,99613.00
2023-02-12T19:34:06.544Z,99619.34
2023-02-12T19:36:37.472Z,99626.53
2023-02-12T19:39:06.959Z,99624.97
2023-02-12T19:41:40.826Z,99625.03
2023-02-12T19:44:12.801Z,99623.41
2023-02-12T19:46:43.017Z,99621.66
2023-02-12T19:49:17.996Z,99633.19
2023-02-12T19:51:46.558Z,99627.97
2023-02-12T19:54:17.412Z,99628.03
2023-02-12T19:56:46.554Z,99628.19
2023-02-12T19:59:17.234Z,99630.88
2023-02-12T20:01:48.304Z,99630.06
2023-02-12T20:04:21.559Z,99629.28
2023-02-12T20:06:50.957Z,99626.72
2023-02-12T20:09:20.594Z,99637.31
2023-02-12T20:11:49.411Z,99635.69
2023-02-12T20:14:18.287Z,99635.69
2023-02-12T20:16:48.385Z,99640.13
2023-02-12T20:19:20.941Z,99648.06
2023-02-12T20:21:54.298Z,99644.56
2023-02-12T20:24:23.054Z,99656.00
2023-02-12T20:26:51.853Z,99657.69
2023-02-12T20:29:20.484Z,99658.56
2023-02-12T20:31:50.645Z,99655.94
2023-02-12T20:34:22.134Z,99659.41
2023-02-12T20:36:50.669Z,99653.31
2023-02-12T20:39:21.088Z,99655.00
2023-02-12T20:41:50.420Z,99652.44
2023-02-12T20:44:21.757Z,99642.88
2023-02-12T20:46:56.402Z,99646.31
2023-02-12T20:49:26.073Z,99642.81
2023-02-12T20:51:54.332Z,99645.44
2023-02-12T20:54:22.808Z,99641.00
2023-02-12T20:56:51.532Z,99647.06
2023-02-12T20:59:20.391Z,99642.69
2023-02-12T21:01:50.456Z,99640.00
2023-02-12T21:04:20.675Z,99635.56
2023-02-12T21:06:49.582Z,99639.88
2023-02-12T21:09:18.729Z,99642.50
2023-02-12T21:11:47.500Z,99637.13
2023-02-12T21:14:24.883Z,99637.06
2023-02-12T21:16:56.909Z,99635.19
2023-02-12T21:19:26.561Z,99643.00
2023-02-12T21:21:55.307Z,99635.13
2023-02-12T21:24:26.454Z,99637.63
2023-02-12T21:26:56.841Z,99630.69
2023-02-12T21:29:26.708Z,99634.16
2023-02-12T21:31:56.481Z,99637.56
2023-02-12T21:34:25.209Z,99639.31
2023-02-12T21:36:55.877Z,99636.66
2023-02-12T21:39:27.760Z,99650.66
2023-02-12T21:41:58.296Z,99647.19
2023-02-12T21:44:27.674Z,99638.44
2023-02-12T21:46:58.637Z,99641.94
2023-02-12T21:49:28.174Z,99639.31
2023-02-12T21:51:58.558Z,99634.94
2023-02-12T21:54:27.886Z,99629.75
2023-02-12T21:56:56.908Z,99630.59
2023-02-12T21:59:26.529Z,99630.69
2023-02-12T22:01:58.592Z,99632.38
2023-02-12T22:04:27.653Z,99635.75
2023-02-12T22:06:56.584Z,99638.44
2023-02-12T22:09:25.052Z,99637.56
2023-02-12T22:11:53.870Z,99639.34
2023-02-12T22:14:23.498Z,99635.88
2023-02-12T22:16:52.098Z,99631.47
2023-02-12T22:19:21.768Z,99628.84
2023-02-12T22:21:52.575Z,99626.28
2023-02-12T22:24:21.871Z,99632.38
2023-02-12T22:26:50.316Z,99632.31
2023-02-12T22:29:18.687Z,99633.19
2023-02-12T22:31:48.540Z,99634.88
2023-02-12T22:34:18.980Z,99625.28
2023-02-12T22:36:49.221Z,99633.19
2023-02-12T22:39:18.522Z,99635.75
2023-02-12T22:41:47.067Z,99644.50
2023-02-12T22:44:17.398Z,99646.19
2023-02-12T22:46:46.630Z,99641.78
2023-02-12T22:49:15.209Z,99657.44
2023-02-12T22:51:43.750Z,99646.88
2023-02-12T22:54:15.929Z,99645.06
2023-02-12T22:56:45.014Z,99641.59
2023-02-12T22:59:14.091Z,99646.88
2023-02-12T23:01:43.363Z,99649.56
2023-02-12T23:04:16.284Z,99650.44
2023-02-12T23:06:45.208Z,99646.94
2023-02-12T23:09:17.996Z,99653.94
2023-02-12T23:11:46.768Z,99645.31
2023-02-12T23:14:15.256Z,99646.06
2023-02-12T23:16:43.660Z,99643.44
2023-02-12T23:19:12.516Z,99646.00
2023-02-12T23:21:41.207Z,99645.94
2023-02-12T23:24:15.041Z,99646.81
2023-02-12T23:26:43.474Z,99639.75
2023-02-12T23:29:11.745Z,99638.91
2023-02-12T23:31:40.249Z,99628.41
2023-02-12T23:34:08.566Z,99624.03
2023-02-12T23:36:36.825Z,99619.66
2023-02-12T23:39:06.104Z,99626.59
2023-02-12T23:41:35.906Z,99621.41
2023-02-12T23:44:04.312Z,99619.72
2023-02-12T23:46:32.809Z,99623.34
2023-02-12T23:49:01.126Z,99613.78
2023-02-12T23:51:29.488Z,99626.94
2023-02-12T23:53:57.953Z,99617.28
2023-02-12T23:56:26.684Z,99607.88
2023-02-12T23:58:58.388Z,99608.72
